Terminal Aerodrome Forecast
Issued by NWS

Home | Current Version | Previous Version | Text Only | Print | Product List | Glossary On
Versions: 1 2 3 4 5 6 7 8 9 10 11 12 13 14 15 16 17 18 19 20 21 22 23 24 25 26 27 28 29 30 31 32 33 34 35 36 37 38 39 40 41
000
FTUS46 KEKA 250543
TAFACV
TAF
KACV 250543Z 2506/2606 15004KT 1SM BR OVC002
      TEMPO 2509/2512 4SM BR SCT002
     FM251200 VRB03KT 6SM BR SCT005
     FM251700 29006KT P6SM SKC
     FM260200 18003KT 4SM BR SCT003=

USA.gov is the U.S. government's official web portal to all federal, state and local government web resources and services.